Time;durP1;ratioP1;P1;durP2;ratioP2;P2;SDS_P1;SDS_P2;PMS_P1;PMS_P2;Temp;Humidity;BMP_temperature;BMP_pressure;BME280_temperature;BME280_humidity;BME280_pressure;Samples;Min_cycle;Max_cycle;Signal;HPM_P1;HPM_P2
2022/08/16 00:00:02;;;;;;;;;;;;;;;;;;2115812;28;19969;-44
2022/08/16 00:01:04;;;;;;;;;;;;;;;;;;2115985;28;19924;-46
2022/08/16 00:02:07;;;;;;;;;;;;;;;;;;2116170;28;19924;-44
2022/08/16 00:03:13;;;;;;;;;;;;;;;;;;2116134;28;19934;-46
2022/08/16 00:04:15;;;;;;;;;;;;;;;;;;2115951;28;19965;-45
2022/08/16 00:05:16;;;;;;;;;;;;;;;;;;2115903;28;20051;-44
2022/08/16 00:06:17;;;;;;;;;;;;;;;;;;2115929;28;19955;-45
2022/08/16 00:07:18;;;;;;;;;;;;;;;;;;2115823;28;19924;-44
2022/08/16 00:08:19;;;;;;;;;;;;;;;;;;2116012;28;20053;-44
2022/08/16 00:09:36;;;;;;;;;;;;;;;;;;2115895;28;19924;-43
2022/08/16 00:10:37;;;;;;;;;;;;;;;;;;2115952;28;20436;-44
2022/08/16 00:11:38;;;;;;;;;;;;;;;;;;2109987;28;20342;-44
2022/08/16 00:12:40;;;;;;;;;;;;;;;;;;2107431;28;19993;-46
2022/08/16 00:13:41;;;;;;;;;;;;;;;;;;2107467;28;20376;-44
2022/08/16 00:14:42;;;;;;;;;;;;;;;;;;2107419;28;20368;-45
2022/08/16 00:15:43;;;;;;;;;;;;;;;;;;2107507;28;20046;-46
2022/08/16 00:16:52;;;;;;;;;;;;;;;;;;2107246;28;20028;-45
2022/08/16 00:18:11;;;;;;;;;;;;;;;;;;2107685;28;20006;-47
2022/08/16 00:19:12;;;;;;;;;;;;;;;;;;2107495;28;19924;-44
2022/08/16 00:20:14;;;;;;;;;;;;;;;;;;2112088;28;20276;-48
2022/08/16 00:21:15;;;;;;;;;;;;;;;;;;2115871;28;19923;-48
2022/08/16 00:22:15;;;;;;;;;;;;;;;;;;2115937;28;20429;-48
2022/08/16 00:23:16;;;;;;;;;;;;;;;;;;2115744;28;20037;-45
2022/08/16 00:24:17;;;;;;;;;;;;;;;;;;2115879;28;20027;-44
2022/08/16 00:25:31;;;;;;;;;;;;;;;;;;2115705;28;19967;-45
2022/08/16 00:26:52;;;;;;;;;;;;;;;;;;2115720;28;19930;-45
2022/08/16 00:27:53;;;;;;;;;;;;;;;;;;2115842;28;19946;-46
2022/08/16 00:28:53;;;;;;;;;;;;;;;;;;2115820;28;20057;-45
2022/08/16 00:29:55;;;;;;;;;;;;;;;;;;2115655;28;20278;-46
2022/08/16 00:31:01;;;;;;;;;;;;;;;;;;2115827;28;20372;-47
2022/08/16 00:32:02;;;;;;;;;;;;;;;;;;2115721;28;19924;-46
2022/08/16 00:33:06;;;;;;;;;;;;;;;;;;2115837;28;19973;-46
2022/08/16 00:34:07;;;;;;;;;;;;;;;;;;2115816;28;19924;-45
2022/08/16 00:35:07;;;;;;;;;;;;;;;;;;2115838;28;19924;-44
2022/08/16 00:36:15;;;;;;;;;;;;;;;;;;2115837;28;20068;-46
2022/08/16 00:37:16;;;;;;;;;;;;;;;;;;2115891;28;20018;-45
2022/08/16 00:38:19;;;;;;;;;;;;;;;;;;2115781;28;19950;-45
2022/08/16 00:39:39;;;;;;;;;;;;;;;;;;2116007;28;19953;-48
2022/08/16 00:40:41;;;;;;;;;;;;;;;;;;2115635;28;19931;-45
2022/08/16 00:41:43;;;;;;;;;;;;;;;;;;2115603;28;19950;-47
2022/08/16 00:42:44;;;;;;;;;;;;;;;;;;2115847;28;19923;-45
2022/08/16 00:43:45;;;;;;;;;;;;;;;;;;2115699;28;19930;-45
2022/08/16 00:44:46;;;;;;;;;;;;;;;;;;2115690;28;20293;-45
2022/08/16 00:45:47;;;;;;;;;;;;;;;;;;2115632;28;19924;-44
2022/08/16 00:47:00;;;;;;;;;;;;;;;;;;2115702;28;19931;-45
2022/08/16 00:48:06;;;;;;;;;;;;;;;;;;2115606;28;19924;-45
2022/08/16 00:49:27;;;;;;;;;;;;;;;;;;2115464;28;19924;-45
2022/08/16 00:50:27;;;;;;;;;;;;;;;;;;2115594;28;20019;-45
2022/08/16 00:51:37;;;;;;;;;;;;;;;;;;2115500;28;19924;-46
2022/08/16 00:52:38;;;;;;;;;;;;;;;;;;2115519;28;20007;-46
2022/08/16 00:53:51;;;;;;;;;;;;;;;;;;2115563;28;19927;-45
2022/08/16 00:54:52;;;;;;;;;;;;;;;;;;2115588;28;19930;-45
2022/08/16 00:55:53;;;;;;;;;;;;;;;;;;2115625;28;20353;-46
2022/08/16 00:56:54;;;;;;;;;;;;;;;;;;2115186;28;19946;-45
2022/08/16 00:57:59;;;;;;;;;;;;;;;;;;2115672;28;19975;-45
2022/08/16 00:59:01;;;;;;;;;;;;;;;;;;2115497;28;20014;-45
2022/08/16 01:00:02;;;;;;;;;;;;;;;;;;2115562;28;19927;-45
2022/08/16 01:01:02;;;;;;;;;;;;;;;;;;2115504;28;20373;-45
2022/08/16 01:02:04;;;;;;;;;;;;;;;;;;2115489;28;20018;-46
2022/08/16 01:03:25;;;;;;;;;;;;;;;;;;2115537;28;19924;-45
2022/08/16 01:04:30;;;;;;;;;;;;;;;;;;2115866;28;19923;-47
2022/08/16 01:05:31;;;;;;;;;;;;;;;;;;2115421;28;20012;-47
2022/08/16 01:06:33;;;;;;;;;;;;;;;;;;2115561;28;20002;-47
2022/08/16 01:07:49;;;;;;;;;;;;;;;;;;2115499;28;19923;-45
2022/08/16 01:08:51;;;;;;;;;;;;;;;;;;2115892;28;19927;-45
2022/08/16 01:09:52;;;;;;;;;;;;;;;;;;2115387;28;20085;-44
2022/08/16 01:10:54;;;;;;;;;;;;;;;;;;2115453;28;20401;-46
2022/08/16 01:11:55;;;;;;;;;;;;;;;;;;2107130;28;19924;-46
2022/08/16 01:12:55;;;;;;;;;;;;;;;;;;2107208;28;19928;-44
2022/08/16 01:13:56;;;;;;;;;;;;;;;;;;2107245;28;20332;-45
2022/08/16 01:14:57;;;;;;;;;;;;;;;;;;2106848;28;19924;-47
2022/08/16 01:15:59;;;;;;;;;;;;;;;;;;2107630;28;19954;-49
2022/08/16 01:17:00;;;;;;;;;;;;;;;;;;2115253;28;20417;-46
2022/08/16 01:18:01;;;;;;;;;;;;;;;;;;2115178;28;19928;-44
2022/08/16 01:19:02;;;;;;;;;;;;;;;;;;2115659;28;19981;-46
2022/08/16 01:20:03;;;;;;;;;;;;;;;;;;2115563;28;20014;-44
2022/08/16 01:21:04;;;;;;;;;;;;;;;;;;2115346;28;19928;-45
2022/08/16 01:22:05;;;;;;;;;;;;;;;;;;2115572;28;20064;-46
2022/08/16 01:23:26;;;;;;;;;;;;;;;;;;2115559;28;19924;-46
2022/08/16 01:24:27;;;;;;;;;;;;;;;;;;2115348;28;19931;-45
2022/08/16 01:25:47;;;;;;;;;;;;;;;;;;2115324;28;19928;-45
2022/08/16 01:27:00;;;;;;;;;;;;;;;;;;2115156;28;20443;-47
2022/08/16 01:28:04;;;;;;;;;;;;;;;;;;2115396;28;19931;-44
2022/08/16 01:29:05;;;;;;;;;;;;;;;;;;2115653;28;20300;-45
2022/08/16 01:30:06;;;;;;;;;;;;;;;;;;2115315;28;19927;-45
2022/08/16 01:31:19;;;;;;;;;;;;;;;;;;2115405;28;19931;-45
2022/08/16 01:32:20;;;;;;;;;;;;;;;;;;2115347;28;19962;-45
2022/08/16 01:33:34;;;;;;;;;;;;;;;;;;2115383;28;19924;-44
2022/08/16 01:34:36;;;;;;;;;;;;;;;;;;2115592;28;19931;-46
2022/08/16 01:35:47;;;;;;;;;;;;;;;;;;2115436;28;19924;-44
2022/08/16 01:36:53;;;;;;;;;;;;;;;;;;2115213;28;20446;-44
2022/08/16 01:37:58;;;;;;;;;;;;;;;;;;2115586;28;19928;-45
2022/08/16 01:38:59;;;;;;;;;;;;;;;;;;2115173;28;20031;-45
2022/08/16 01:40:00;;;;;;;;;;;;;;;;;;2115365;28;20083;-45
2022/08/16 01:41:01;;;;;;;;;;;;;;;;;;2115462;28;19928;-44
2022/08/16 01:42:03;;;;;;;;;;;;;;;;;;2114747;28;19924;-45
2022/08/16 01:43:04;;;;;;;;;;;;;;;;;;2115379;28;20057;-46
2022/08/16 01:44:05;;;;;;;;;;;;;;;;;;2115411;28;20342;-44
2022/08/16 01:45:05;;;;;;;;;;;;;;;;;;2115369;28;19931;-45
2022/08/16 01:46:06;;;;;;;;;;;;;;;;;;2115130;28;19991;-44
2022/08/16 01:47:27;;;;;;;;;;;;;;;;;;2115390;28;19930;-47
2022/08/16 01:48:29;;;;;;;;;;;;;;;;;;2115093;28;20061;-45
2022/08/16 01:49:31;;;;;;;;;;;;;;;;;;2115522;28;20364;-45
2022/08/16 01:50:44;;;;;;;;;;;;;;;;;;2115067;28;19930;-45
2022/08/16 01:52:05;;;;;;;;;;;;;;;;;;2115168;28;19930;-44
2022/08/16 01:53:05;;;;;;;;;;;;;;;;;;2115151;28;19970;-44
2022/08/16 01:54:06;;;;;;;;;;;;;;;;;;2115177;28;20010;-44
2022/08/16 01:55:07;;;;;;;;;;;;;;;;;;2115120;28;19924;-45
2022/08/16 01:56:08;;;;;;;;;;;;;;;;;;2115207;28;20019;-45
2022/08/16 01:57:24;;;;;;;;;;;;;;;;;;2115213;28;20015;-44
2022/08/16 01:58:25;;;;;;;;;;;;;;;;;;2115215;28;19930;-44
2022/08/16 01:59:26;;;;;;;;;;;;;;;;;;2115117;28;20344;-44
2022/08/16 02:00:26;;;;;;;;;;;;;;;;;;2115348;28;19962;-44
2022/08/16 02:01:30;;;;;;;;;;;;;;;;;;2115023;28;19924;-45
2022/08/16 02:02:32;;;;;;;;;;;;;;;;;;2115093;28;20002;-44
2022/08/16 02:03:33;;;;;;;;;;;;;;;;;;2115058;28;20376;-44
2022/08/16 02:04:33;;;;;;;;;;;;;;;;;;2115065;28;19953;-47
2022/08/16 02:05:50;;;;;;;;;;;;;;;;;;2115105;28;19989;-44
2022/08/16 02:06:52;;;;;;;;;;;;;;;;;;2114949;28;19931;-45
2022/08/16 02:07:53;;;;;;;;;;;;;;;;;;2114789;28;19924;-46
2022/08/16 02:08:53;;;;;;;;;;;;;;;;;;2114627;28;19938;-45
2022/08/16 02:09:54;;;;;;;;;;;;;;;;;;2115101;28;19923;-44
2022/08/16 02:10:57;;;;;;;;;;;;;;;;;;2115062;28;19923;-46
2022/08/16 02:11:58;;;;;;;;;;;;;;;;;;2106620;28;20015;-46
2022/08/16 02:12:59;;;;;;;;;;;;;;;;;;2113444;28;20376;-47
2022/08/16 02:14:01;;;;;;;;;;;;;;;;;;2115228;28;19927;-45
2022/08/16 02:15:03;;;;;;;;;;;;;;;;;;2114997;28;19923;-45
2022/08/16 02:16:04;;;;;;;;;;;;;;;;;;2114952;28;19924;-44
2022/08/16 02:17:05;;;;;;;;;;;;;;;;;;2115117;28;19930;-45
2022/08/16 02:18:06;;;;;;;;;;;;;;;;;;2114882;28;19931;-44
2022/08/16 02:19:07;;;;;;;;;;;;;;;;;;2114933;28;19924;-44
2022/08/16 02:20:18;;;;;;;;;;;;;;;;;;2114997;28;20007;-45
2022/08/16 02:21:19;;;;;;;;;;;;;;;;;;2114948;28;20023;-45
2022/08/16 02:22:32;;;;;;;;;;;;;;;;;;2114965;28;20289;-45
2022/08/16 02:23:35;;;;;;;;;;;;;;;;;;2115234;28;19924;-45
2022/08/16 02:24:36;;;;;;;;;;;;;;;;;;2114841;28;19924;-45
2022/08/16 02:25:41;;;;;;;;;;;;;;;;;;2115088;28;20281;-44
2022/08/16 02:26:53;;;;;;;;;;;;;;;;;;2114845;28;20265;-45
2022/08/16 02:27:54;;;;;;;;;;;;;;;;;;2114881;28;20502;-46
2022/08/16 02:28:55;;;;;;;;;;;;;;;;;;2114911;28;20030;-44
2022/08/16 02:29:56;;;;;;;;;;;;;;;;;;2115029;28;19969;-46
2022/08/16 02:31:06;;;;;;;;;;;;;;;;;;2115142;28;19924;-45
2022/08/16 02:32:07;;;;;;;;;;;;;;;;;;2115083;28;19967;-46
2022/08/16 02:33:28;;;;;;;;;;;;;;;;;;2114712;28;19976;-44
2022/08/16 02:34:44;;;;;;;;;;;;;;;;;;2115040;28;19992;-46
2022/08/16 02:35:45;;;;;;;;;;;;;;;;;;2114793;28;20353;-44
2022/08/16 02:36:50;;;;;;;;;;;;;;;;;;2114830;28;19924;-46
2022/08/16 02:37:51;;;;;;;;;;;;;;;;;;2114962;28;19972;-45
2022/08/16 02:38:53;;;;;;;;;;;;;;;;;;2115154;28;19924;-45
2022/08/16 02:39:54;;;;;;;;;;;;;;;;;;2114903;28;19931;-45
2022/08/16 02:40:55;;;;;;;;;;;;;;;;;;2114518;28;20011;-43
2022/08/16 02:41:56;;;;;;;;;;;;;;;;;;2114797;28;20385;-45
2022/08/16 02:42:57;;;;;;;;;;;;;;;;;;2114693;28;19924;-44
2022/08/16 02:43:58;;;;;;;;;;;;;;;;;;2114962;28;19927;-43
2022/08/16 02:44:59;;;;;;;;;;;;;;;;;;2114999;28;20007;-46
2022/08/16 02:46:00;;;;;;;;;;;;;;;;;;2114735;28;19977;-48
2022/08/16 02:47:01;;;;;;;;;;;;;;;;;;2114844;28;20012;-44
2022/08/16 02:48:02;;;;;;;;;;;;;;;;;;2114838;28;20388;-45
2022/08/16 02:49:23;;;;;;;;;;;;;;;;;;2114671;28;20280;-45
2022/08/16 02:50:44;;;;;;;;;;;;;;;;;;2114751;28;20298;-45
2022/08/16 02:52:03;;;;;;;;;;;;;;;;;;2114658;28;20364;-44
2022/08/16 02:53:04;;;;;;;;;;;;;;;;;;2114944;28;19967;-45
2022/08/16 02:54:05;;;;;;;;;;;;;;;;;;2114719;28;19923;-45
2022/08/16 02:55:06;;;;;;;;;;;;;;;;;;2114630;28;19947;-45
2022/08/16 02:56:08;;;;;;;;;;;;;;;;;;2114828;28;19931;-44
2022/08/16 02:57:10;;;;;;;;;;;;;;;;;;2115149;28;20384;-44
2022/08/16 02:58:11;;;;;;;;;;;;;;;;;;2114854;28;20019;-45
2022/08/16 02:59:11;;;;;;;;;;;;;;;;;;2115075;28;20022;-45
2022/08/16 03:00:15;;;;;;;;;;;;;;;;;;2114745;28;19984;-45
2022/08/16 03:01:34;;;;;;;;;;;;;;;;;;2114656;28;19924;-44
2022/08/16 03:02:39;;;;;;;;;;;;;;;;;;2114849;28;19924;-45
2022/08/16 03:03:39;;;;;;;;;;;;;;;;;;2114846;28;20131;-46
2022/08/16 03:05:00;;;;;;;;;;;;;;;;;;2114953;28;19927;-45
2022/08/16 03:06:02;;;;;;;;;;;;;;;;;;2115265;28;19928;-45
2022/08/16 03:07:03;;;;;;;;;;;;;;;;;;2114865;28;19924;-45
2022/08/16 03:08:04;;;;;;;;;;;;;;;;;;2114816;28;19924;-45
2022/08/16 03:09:05;;;;;;;;;;;;;;;;;;2114418;28;19924;-45
2022/08/16 03:10:06;;;;;;;;;;;;;;;;;;2114747;28;20003;-44
2022/08/16 03:11:07;;;;;;;;;;;;;;;;;;2113763;28;19955;-47
2022/08/16 03:12:18;;;;;;;;;;;;;;;;;;2106514;28;20438;-45
2022/08/16 03:13:19;;;;;;;;;;;;;;;;;;2106194;28;20023;-44
2022/08/16 03:14:20;;;;;;;;;;;;;;;;;;2106551;28;19924;-43
2022/08/16 03:15:21;;;;;;;;;;;;;;;;;;2106357;28;20078;-44
2022/08/16 03:16:22;;;;;;;;;;;;;;;;;;2106116;28;19959;-44
2022/08/16 03:17:39;;;;;;;;;;;;;;;;;;2106435;28;20393;-45
2022/08/16 03:18:54;;;;;;;;;;;;;;;;;;2106551;28;19931;-45
2022/08/16 03:19:55;;;;;;;;;;;;;;;;;;2106036;28;20129;-44
2022/08/16 03:21:00;;;;;;;;;;;;;;;;;;2106385;28;19924;-47
2022/08/16 03:22:01;;;;;;;;;;;;;;;;;;2106340;28;20014;-45
2022/08/16 03:23:02;;;;;;;;;;;;;;;;;;2106179;28;20407;-46
2022/08/16 03:24:03;;;;;;;;;;;;;;;;;;2106563;28;19969;-45
2022/08/16 03:25:04;;;;;;;;;;;;;;;;;;2106305;28;19932;-46
2022/08/16 03:26:04;;;;;;;;;;;;;;;;;;2106252;28;19925;-43
2022/08/16 03:27:09;;;;;;;;;;;;;;;;;;2106569;28;20301;-44
2022/08/16 03:28:09;;;;;;;;;;;;;;;;;;2106225;28;19924;-44
2022/08/16 03:29:11;;;;;;;;;;;;;;;;;;2106252;28;19928;-44
2022/08/16 03:30:12;;;;;;;;;;;;;;;;;;2106059;28;19928;-46
2022/08/16 03:31:18;;;;;;;;;;;;;;;;;;2106634;28;19924;-44
2022/08/16 03:32:18;;;;;;;;;;;;;;;;;;2106620;28;19928;-46
2022/08/16 03:33:19;;;;;;;;;;;;;;;;;;2106554;28;19925;-45
2022/08/16 03:34:20;;;;;;;;;;;;;;;;;;2106101;28;20407;-46
2022/08/16 03:35:21;;;;;;;;;;;;;;;;;;2106195;28;19981;-44
2022/08/16 03:36:22;;;;;;;;;;;;;;;;;;2106467;28;19973;-46
2022/08/16 03:37:31;;;;;;;;;;;;;;;;;;2106542;28;19932;-45
2022/08/16 03:38:33;;;;;;;;;;;;;;;;;;2106149;28;20011;-44
2022/08/16 03:39:36;;;;;;;;;;;;;;;;;;2106227;28;19971;-46
2022/08/16 03:40:43;;;;;;;;;;;;;;;;;;2106294;28;19986;-46
2022/08/16 03:41:44;;;;;;;;;;;;;;;;;;2106188;28;19924;-46
2022/08/16 03:42:51;;;;;;;;;;;;;;;;;;2106409;28;19924;-46
2022/08/16 03:44:12;;;;;;;;;;;;;;;;;;2106171;28;19935;-45
2022/08/16 03:45:13;;;;;;;;;;;;;;;;;;2106132;28;19930;-46
2022/08/16 03:46:14;;;;;;;;;;;;;;;;;;2106240;28;19950;-46
2022/08/16 03:47:35;;;;;;;;;;;;;;;;;;2106197;28;20385;-45
2022/08/16 03:48:36;;;;;;;;;;;;;;;;;;2106504;28;19924;-44
2022/08/16 03:49:40;;;;;;;;;;;;;;;;;;2106085;28;19989;-45
2022/08/16 03:50:41;;;;;;;;;;;;;;;;;;2106290;28;19932;-45
2022/08/16 03:51:42;;;;;;;;;;;;;;;;;;2106219;28;20664;-47
2022/08/16 03:52:43;;;;;;;;;;;;;;;;;;2105902;28;20498;-45
2022/08/16 03:53:45;;;;;;;;;;;;;;;;;;2106101;28;19924;-46
2022/08/16 03:54:47;;;;;;;;;;;;;;;;;;2106027;28;19964;-45
2022/08/16 03:55:58;;;;;;;;;;;;;;;;;;2106256;28;19930;-45
2022/08/16 03:56:59;;;;;;;;;;;;;;;;;;2106181;28;19931;-44
2022/08/16 03:57:59;;;;;;;;;;;;;;;;;;2106189;28;20016;-45
2022/08/16 03:59:00;;;;;;;;;;;;;;;;;;2106059;28;20046;-46
2022/08/16 04:00:11;;;;;;;;;;;;;;;;;;2106145;28;19957;-47
2022/08/16 04:01:12;;;;;;;;;;;;;;;;;;2106026;28;19955;-48
2022/08/16 04:02:12;;;;;;;;;;;;;;;;;;2105890;28;19924;-48
2022/08/16 04:03:23;;;;;;;;;;;;;;;;;;2106076;28;20319;-46
2022/08/16 04:04:24;;;;;;;;;;;;;;;;;;2106223;28;19924;-46
2022/08/16 04:05:34;;;;;;;;;;;;;;;;;;2113619;28;20011;-47
2022/08/16 04:06:35;;;;;;;;;;;;;;;;;;2114380;28;20006;-44
2022/08/16 04:07:36;;;;;;;;;;;;;;;;;;2114839;28;19924;-46
2022/08/16 04:08:37;;;;;;;;;;;;;;;;;;2114539;28;20383;-46
2022/08/16 04:09:40;;;;;;;;;;;;;;;;;;2114523;28;20435;-46
2022/08/16 04:10:41;;;;;;;;;;;;;;;;;;2114313;28;19927;-45
2022/08/16 04:11:41;;;;;;;;;;;;;;;;;;2108204;28;20345;-48
2022/08/16 04:12:42;;;;;;;;;;;;;;;;;;2105947;28;19931;-46
2022/08/16 04:14:03;;;;;;;;;;;;;;;;;;2105829;28;20292;-45
2022/08/16 04:15:28;;;;;;;;;;;;;;;;;;2106003;28;20383;-45
2022/08/16 04:16:31;;;;;;;;;;;;;;;;;;2105997;28;19931;-45
2022/08/16 04:17:32;;;;;;;;;;;;;;;;;;2105892;28;20003;-46
2022/08/16 04:18:35;;;;;;;;;;;;;;;;;;2106179;28;19953;-46
2022/08/16 04:19:36;;;;;;;;;;;;;;;;;;2106119;28;19973;-46
2022/08/16 04:20:38;;;;;;;;;;;;;;;;;;2106065;28;19924;-47
2022/08/16 04:21:39;;;;;;;;;;;;;;;;;;2106165;28;19962;-46
2022/08/16 04:22:47;;;;;;;;;;;;;;;;;;2106307;28;19943;-45
2022/08/16 04:23:49;;;;;;;;;;;;;;;;;;2105912;28;20046;-46
2022/08/16 04:24:50;;;;;;;;;;;;;;;;;;2106045;28;20088;-45
2022/08/16 04:25:55;;;;;;;;;;;;;;;;;;2105936;28;19924;-45
2022/08/16 04:26:56;;;;;;;;;;;;;;;;;;2106031;28;20011;-47
2022/08/16 04:27:57;;;;;;;;;;;;;;;;;;2105995;28;20281;-45
2022/08/16 04:28:58;;;;;;;;;;;;;;;;;;2105941;28;19931;-45
2022/08/16 04:30:18;;;;;;;;;;;;;;;;;;2106228;28;20381;-46
2022/08/16 04:31:32;;;;;;;;;;;;;;;;;;2106777;28;20019;-46
2022/08/16 04:32:33;;;;;;;;;;;;;;;;;;2107230;28;19946;-44
2022/08/16 04:33:33;;;;;;;;;;;;;;;;;;2107582;28;20395;-46
2022/08/16 04:34:35;;;;;;;;;;;;;;;;;;2107536;28;19924;-46
2022/08/16 04:35:36;;;;;;;;;;;;;;;;;;2107356;28;20007;-46
2022/08/16 04:36:37;;;;;;;;;;;;;;;;;;2107373;28;20371;-45
2022/08/16 04:37:38;;;;;;;;;;;;;;;;;;2107802;28;20380;-47
2022/08/16 04:38:42;;;;;;;;;;;;;;;;;;2107430;28;19930;-46
2022/08/16 04:39:43;;;;;;;;;;;;;;;;;;2115544;28;20034;-47
2022/08/16 04:40:48;;;;;;;;;;;;;;;;;;2116454;28;20286;-46
2022/08/16 04:41:51;;;;;;;;;;;;;;;;;;2115996;28;19938;-45
2022/08/16 04:42:59;;;;;;;;;;;;;;;;;;2115978;28;19924;-46
2022/08/16 04:44:00;;;;;;;;;;;;;;;;;;2115793;28;20061;-45
2022/08/16 04:45:01;;;;;;;;;;;;;;;;;;2115739;28;19924;-47
2022/08/16 04:46:03;;;;;;;;;;;;;;;;;;2115857;28;19952;-46
2022/08/16 04:47:04;;;;;;;;;;;;;;;;;;2115670;28;19924;-46
2022/08/16 04:48:22;;;;;;;;;;;;;;;;;;2115595;28;19924;-46
2022/08/16 04:49:32;;;;;;;;;;;;;;;;;;2115811;28;19924;-46
2022/08/16 04:50:39;;;;;;;;;;;;;;;;;;2116109;28;20003;-47
2022/08/16 04:51:43;;;;;;;;;;;;;;;;;;2115818;28;19924;-46
2022/08/16 04:52:45;;;;;;;;;;;;;;;;;;2115634;28;20018;-46
2022/08/16 04:53:46;;;;;;;;;;;;;;;;;;2115700;28;19923;-47
2022/08/16 04:54:47;;;;;;;;;;;;;;;;;;2116322;28;19973;-49
2022/08/16 04:55:48;;;;;;;;;;;;;;;;;;2115559;28;20053;-47
2022/08/16 04:56:54;;;;;;;;;;;;;;;;;;2115928;28;20311;-46
2022/08/16 04:57:54;;;;;;;;;;;;;;;;;;2115469;28;20002;-45
2022/08/16 04:58:55;;;;;;;;;;;;;;;;;;2115651;28;19928;-45
2022/08/16 04:59:58;;;;;;;;;;;;;;;;;;2116629;28;19931;-45
2022/08/16 05:00:59;;;;;;;;;;;;;;;;;;2115512;28;20376;-46
2022/08/16 05:01:59;;;;;;;;;;;;;;;;;;2115420;28;20466;-48
2022/08/16 05:03:00;;;;;;;;;;;;;;;;;;2115980;28;19924;-45
2022/08/16 05:04:07;;;;;;;;;;;;;;;;;;2115772;28;19924;-47
2022/08/16 05:05:20;;;;;;;;;;;;;;;;;;2115678;28;20000;-46
2022/08/16 05:06:21;;;;;;;;;;;;;;;;;;2115670;28;20553;-45
2022/08/16 05:07:22;;;;;;;;;;;;;;;;;;2115870;28;19928;-45
2022/08/16 05:08:22;;;;;;;;;;;;;;;;;;2115378;28;19975;-44
2022/08/16 05:09:30;;;;;;;;;;;;;;;;;;2116311;28;20014;-44
2022/08/16 05:10:31;;;;;;;;;;;;;;;;;;2115592;28;19923;-48
2022/08/16 05:11:32;;;;;;;;;;;;;;;;;;2110651;28;19945;-43
2022/08/16 05:12:32;;;;;;;;;;;;;;;;;;2107728;28;19924;-43
2022/08/16 05:13:33;;;;;;;;;;;;;;;;;;2106845;28;20368;-43
2022/08/16 05:14:41;;;;;;;;;;;;;;;;;;2107598;28;20293;-43
2022/08/16 05:15:47;;;;;;;;;;;;;;;;;;2107205;28;19930;-44
2022/08/16 05:16:47;;;;;;;;;;;;;;;;;;2106842;28;20019;-44
2022/08/16 05:17:48;;;;;;;;;;;;;;;;;;2107356;28;19967;-45
2022/08/16 05:18:58;;;;;;;;;;;;;;;;;;2107851;28;19928;-47
2022/08/16 05:19:59;;;;;;;;;;;;;;;;;;2107961;28;19924;-46
2022/08/16 05:21:00;;;;;;;;;;;;;;;;;;2107170;28;20027;-44
2022/08/16 05:22:09;;;;;;;;;;;;;;;;;;2107402;28;19928;-46
2022/08/16 05:23:18;;;;;;;;;;;;;;;;;;2107130;28;19924;-46
2022/08/16 05:24:19;;;;;;;;;;;;;;;;;;2107189;28;20373;-50
2022/08/16 05:25:25;;;;;;;;;;;;;;;;;;2106955;28;19947;-46
2022/08/16 05:26:41;;;;;;;;;;;;;;;;;;2107326;28;20335;-45
2022/08/16 05:27:44;;;;;;;;;;;;;;;;;;2107079;28;20317;-49
2022/08/16 05:28:45;;;;;;;;;;;;;;;;;;2107670;28;20437;-45
2022/08/16 05:29:46;;;;;;;;;;;;;;;;;;2107305;28;19963;-46
2022/08/16 05:30:58;;;;;;;;;;;;;;;;;;2106917;28;19924;-45
2022/08/16 05:32:00;;;;;;;;;;;;;;;;;;2107373;28;19932;-45
2022/08/16 05:33:01;;;;;;;;;;;;;;;;;;2107275;28;20452;-46
2022/08/16 05:34:02;;;;;;;;;;;;;;;;;;2106998;28;19928;-46
2022/08/16 05:35:06;;;;;;;;;;;;;;;;;;2107190;28;20003;-48
2022/08/16 05:36:07;;;;;;;;;;;;;;;;;;2106953;28;20371;-47
2022/08/16 05:37:14;;;;;;;;;;;;;;;;;;2107454;28;19924;-48
2022/08/16 05:38:16;;;;;;;;;;;;;;;;;;2107000;28;19979;-45
2022/08/16 05:39:34;;;;;;;;;;;;;;;;;;2107705;28;19931;-45
2022/08/16 05:40:41;;;;;;;;;;;;;;;;;;2107204;28;19924;-44
2022/08/16 05:41:42;;;;;;;;;;;;;;;;;;2106836;28;19999;-46
2022/08/16 05:42:45;;;;;;;;;;;;;;;;;;2106712;28;19931;-47
2022/08/16 05:43:49;;;;;;;;;;;;;;;;;;2106767;28;19985;-45
2022/08/16 05:44:50;;;;;;;;;;;;;;;;;;2107279;28;20435;-45
2022/08/16 05:45:52;;;;;;;;;;;;;;;;;;2107506;28;19924;-46
2022/08/16 05:46:53;;;;;;;;;;;;;;;;;;2106632;28;19982;-45
2022/08/16 05:47:54;;;;;;;;;;;;;;;;;;2107107;28;20011;-46
2022/08/16 05:49:00;;;;;;;;;;;;;;;;;;2107100;28;19924;-46
2022/08/16 05:50:09;;;;;;;;;;;;;;;;;;2107318;28;19950;-47
2022/08/16 05:51:10;;;;;;;;;;;;;;;;;;2106774;28;20015;-45
2022/08/16 05:52:11;;;;;;;;;;;;;;;;;;2106874;28;19924;-44
2022/08/16 05:53:14;;;;;;;;;;;;;;;;;;2107782;28;19963;-46
2022/08/16 05:54:16;;;;;;;;;;;;;;;;;;2106602;28;19924;-46
2022/08/16 05:55:17;;;;;;;;;;;;;;;;;;2106628;28;20061;-45
2022/08/16 05:56:18;;;;;;;;;;;;;;;;;;2107099;28;20426;-44
2022/08/16 05:57:19;;;;;;;;;;;;;;;;;;2108137;28;19924;-46
2022/08/16 05:58:21;;;;;;;;;;;;;;;;;;2115312;28;19924;-47
2022/08/16 05:59:33;;;;;;;;;;;;;;;;;;2115407;28;19930;-45
2022/08/16 06:00:34;;;;;;;;;;;;;;;;;;2115118;28;20373;-45
2022/08/16 06:01:35;;;;;;;;;;;;;;;;;;2114971;28;19928;-44
2022/08/16 06:02:38;;;;;;;;;;;;;;;;;;2115037;28;19930;-44
2022/08/16 06:03:39;;;;;;;;;;;;;;;;;;2115494;28;20403;-46
2022/08/16 06:04:40;;;;;;;;;;;;;;;;;;2115172;28;20069;-44
2022/08/16 06:05:42;;;;;;;;;;;;;;;;;;2115271;28;20001;-45
2022/08/16 06:06:43;;;;;;;;;;;;;;;;;;2115438;28;19924;-44
2022/08/16 06:07:57;;;;;;;;;;;;;;;;;;2115518;28;20014;-46
2022/08/16 06:08:59;;;;;;;;;;;;;;;;;;2115464;28;19924;-47
2022/08/16 06:10:00;;;;;;;;;;;;;;;;;;2115447;28;19923;-45
2022/08/16 06:11:01;;;;;;;;;;;;;;;;;;2114591;28;19966;-44
2022/08/16 06:12:03;;;;;;;;;;;;;;;;;;2106904;28;20468;-46
2022/08/16 06:13:04;;;;;;;;;;;;;;;;;;2106836;28;20023;-45
2022/08/16 06:14:04;;;;;;;;;;;;;;;;;;2107304;28;20015;-47
2022/08/16 06:15:06;;;;;;;;;;;;;;;;;;2107121;28;19924;-45
2022/08/16 06:16:08;;;;;;;;;;;;;;;;;;2107537;28;19932;-45
2022/08/16 06:17:09;;;;;;;;;;;;;;;;;;2106818;28;20377;-44
2022/08/16 06:18:09;;;;;;;;;;;;;;;;;;2107256;28;19982;-46
2022/08/16 06:19:10;;;;;;;;;;;;;;;;;;2106633;28;19924;-46
2022/08/16 06:20:13;;;;;;;;;;;;;;;;;;2106872;28;20015;-46
2022/08/16 06:21:14;;;;;;;;;;;;;;;;;;2107479;28;19959;-45
2022/08/16 06:22:14;;;;;;;;;;;;;;;;;;2106755;28;19978;-44
2022/08/16 06:23:35;;;;;;;;;;;;;;;;;;2107068;28;19924;-45
2022/08/16 06:24:36;;;;;;;;;;;;;;;;;;2106510;28;19967;-43
2022/08/16 06:25:55;;;;;;;;;;;;;;;;;;2107218;28;20386;-46
2022/08/16 06:26:56;;;;;;;;;;;;;;;;;;2106832;28;20448;-44
2022/08/16 06:27:58;;;;;;;;;;;;;;;;;;2106895;28;19924;-43
2022/08/16 06:28:59;;;;;;;;;;;;;;;;;;2106781;28;19927;-44
2022/08/16 06:30:00;;;;;;;;;;;;;;;;;;2106453;28;19963;-43
2022/08/16 06:31:01;;;;;;;;;;;;;;;;;;2106672;28;19924;-43
2022/08/16 06:32:02;;;;;;;;;;;;;;;;;;2106529;28;20297;-45
2022/08/16 06:33:03;;;;;;;;;;;;;;;;;;2106698;28;19924;-44
2022/08/16 06:34:04;;;;;;;;;;;;;;;;;;2106586;28;20366;-44
2022/08/16 06:35:05;;;;;;;;;;;;;;;;;;2106569;28;19955;-46
2022/08/16 06:36:08;;;;;;;;;;;;;;;;;;2106447;28;19924;-44
2022/08/16 06:37:09;;;;;;;;;;;;;;;;;;2106732;28;20019;-45
2022/08/16 06:38:09;;;;;;;;;;;;;;;;;;2106683;28;19924;-45
2022/08/16 06:39:30;;;;;;;;;;;;;;;;;;2106537;28;19943;-43
2022/08/16 06:40:32;;;;;;;;;;;;;;;;;;2106774;28;19924;-46
2022/08/16 06:41:34;;;;;;;;;;;;;;;;;;2106900;28;19924;-52
2022/08/16 06:42:40;;;;;;;;;;;;;;;;;;2107313;28;19924;-48
2022/08/16 06:43:48;;;;;;;;;;;;;;;;;;2106467;28;19924;-48
2022/08/16 06:44:49;;;;;;;;;;;;;;;;;;2106633;28;19924;-46
2022/08/16 06:45:50;;;;;;;;;;;;;;;;;;2106811;28;19960;-45
2022/08/16 06:46:51;;;;;;;;;;;;;;;;;;2106597;28;19963;-46
2022/08/16 06:47:51;;;;;;;;;;;;;;;;;;2106360;28;19924;-47
2022/08/16 06:48:56;;;;;;;;;;;;;;;;;;2106594;28;19962;-48
2022/08/16 06:49:57;;;;;;;;;;;;;;;;;;2106325;28;20094;-48
2022/08/16 06:50:59;;;;;;;;;;;;;;;;;;2106751;28;20007;-45
2022/08/16 06:51:59;;;;;;;;;;;;;;;;;;2107417;28;20056;-50
2022/08/16 06:53:03;;;;;;;;;;;;;;;;;;2106400;28;19924;-50
2022/08/16 06:54:09;;;;;;;;;;;;;;;;;;2111943;28;20326;-51
2022/08/16 06:55:14;;;;;;;;;;;;;;;;;;2114841;28;19923;-48
2022/08/16 06:56:15;;;;;;;;;;;;;;;;;;2114758;28;20008;-50
2022/08/16 06:57:24;;;;;;;;;;;;;;;;;;2114817;28;20296;-47
2022/08/16 06:58:24;;;;;;;;;;;;;;;;;;2114920;28;20371;-47
2022/08/16 06:59:32;;;;;;;;;;;;;;;;;;2114640;28;19930;-46
2022/08/16 07:00:52;;;;;;;;;;;;;;;;;;2115448;28;19927;-47
2022/08/16 07:01:53;;;;;;;;;;;;;;;;;;2114925;28;19924;-51
2022/08/16 07:02:56;;;;;;;;;;;;;;;;;;2114719;28;20157;-50
2022/08/16 07:03:57;;;;;;;;;;;;;;;;;;2114865;28;19924;-47
2022/08/16 07:04:58;;;;;;;;;;;;;;;;;;2114842;28;19923;-50
2022/08/16 07:05:58;;;;;;;;;;;;;;;;;;2114909;28;20012;-48
2022/08/16 07:06:59;;;;;;;;;;;;;;;;;;2114875;28;19924;-48
2022/08/16 07:08:03;;;;;;;;;;;;;;;;;;2115572;28;19959;-47
2022/08/16 07:09:05;;;;;;;;;;;;;;;;;;2114786;28;20337;-46
2022/08/16 07:10:10;;;;;;;;;;;;;;;;;;2114730;28;19932;-45
2022/08/16 07:11:10;;;;;;;;;;;;;;;;;;2114220;28;20341;-46
2022/08/16 07:12:11;;;;;;;;;;;;;;;;;;2114632;28;19955;-44
2022/08/16 07:13:12;;;;;;;;;;;;;;;;;;2114240;28;19932;-47
2022/08/16 07:14:17;;;;;;;;;;;;;;;;;;2114257;28;20241;-45
2022/08/16 07:15:25;;;;;;;;;;;;;;;;;;2114246;28;19946;-45
2022/08/16 07:16:26;;;;;;;;;;;;;;;;;;2114214;28;19934;-47